createdAt,value
2022-12-28T00:00:14.070Z,2.40
2022-12-28T00:05:20.841Z,2.50
2022-12-28T00:11:07.884Z,2.60
2022-12-28T00:15:33.133Z,2.60
2022-12-28T00:20:39.144Z,2.60
2022-12-28T00:25:44.403Z,2.60
2022-12-28T00:30:49.725Z,2.60
2022-12-28T00:35:56.163Z,2.60
2022-12-28T00:41:01.630Z,2.50
2022-12-28T00:46:07.345Z,2.40
2022-12-28T00:51:16.521Z,2.30
2022-12-28T00:56:23.730Z,2.30
2022-12-28T01:01:30.684Z,2.30
2022-12-28T01:06:36.229Z,2.30
2022-12-28T01:11:41.639Z,2.10
2022-12-28T01:16:47.056Z,1.90
2022-12-28T01:21:53.566Z,1.70
2022-12-28T01:26:58.895Z,1.60
2022-12-28T01:32:04.400Z,1.40
2022-12-28T01:37:09.776Z,1.30
2022-12-28T01:42:17.962Z,1.20
2022-12-28T01:47:26.462Z,1.10
2022-12-28T01:52:34.752Z,1.00
2022-12-28T01:57:42.961Z,0.90
2022-12-28T02:02:51.231Z,0.80
2022-12-28T02:08:05.468Z,0.70
2022-12-28T02:13:11.350Z,0.60
2022-12-28T02:18:19.018Z,0.60
2022-12-28T02:23:39.318Z,0.60
2022-12-28T02:29:11.745Z,0.50
2022-12-28T02:34:32.162Z,0.50
2022-12-28T02:39:43.206Z,0.40
2022-12-28T02:45:06.524Z,0.40
2022-12-28T02:50:14.814Z,0.30
2022-12-28T02:56:06.869Z,0.30
2022-12-28T03:01:48.754Z,0.10
2022-12-28T03:07:35.943Z,0.10
2022-12-28T03:12:50.204Z,0.00
2022-12-28T03:18:13.410Z,0.00
2022-12-28T03:23:39.741Z,-0.10
2022-12-28T03:29:05.114Z,-0.10
2022-12-28T03:34:10.579Z,-0.10
2022-12-28T03:39:33.877Z,-0.10
2022-12-28T03:44:41.555Z,-0.10
2022-12-28T03:49:47.082Z,0.10
2022-12-28T03:54:53.158Z,0.20
2022-12-28T03:59:59.213Z,0.40
2022-12-28T04:05:05.041Z,0.50
2022-12-28T04:10:11.159Z,0.60
2022-12-28T04:15:16.451Z,0.60
2022-12-28T04:20:21.817Z,0.70
2022-12-28T04:25:27.947Z,0.80
2022-12-28T04:30:33.277Z,0.80
2022-12-28T04:35:38.622Z,0.80
2022-12-28T04:40:44.111Z,0.80
2022-12-28T04:46:00.577Z,0.90
2022-12-28T04:51:11.855Z,1.00
2022-12-28T04:56:18.574Z,1.00
2022-12-28T05:01:24.961Z,1.10
2022-12-28T05:06:30.465Z,1.10
2022-12-28T05:11:35.755Z,1.10
2022-12-28T05:16:41.340Z,1.20
2022-12-28T05:21:56.389Z,1.20
2022-12-28T05:27:02.343Z,1.20
2022-12-28T05:32:08.242Z,1.20
2022-12-28T05:37:20.131Z,1.20
2022-12-28T05:42:20.500Z,1.20
2022-12-28T05:47:26.328Z,1.10
2022-12-28T05:52:32.951Z,1.10
2022-12-28T05:57:38.341Z,1.10
2022-12-28T06:02:43.805Z,1.20
2022-12-28T06:07:50.877Z,1.20
2022-12-28T06:12:56.094Z,1.20
2022-12-28T06:18:01.287Z,1.20
2022-12-28T06:23:06.599Z,1.20
2022-12-28T06:28:13.575Z,1.30
2022-12-28T06:33:18.881Z,1.30
2022-12-28T06:38:24.096Z,1.30
2022-12-28T06:43:34.257Z,1.30
2022-12-28T06:48:39.631Z,1.30
2022-12-28T06:53:45.853Z,1.30
2022-12-28T06:58:55.727Z,1.30
2022-12-28T07:04:01.049Z,1.30
2022-12-28T07:09:09.264Z,1.30
2022-12-28T07:14:14.552Z,1.30
2022-12-28T07:19:19.699Z,1.30
2022-12-28T07:24:24.856Z,1.30
2022-12-28T07:29:30.910Z,1.30
2022-12-28T07:34:36.116Z,1.40
2022-12-28T07:39:41.299Z,1.40
2022-12-28T07:44:49.258Z,1.50
2022-12-28T07:49:55.080Z,1.50
2022-12-28T07:55:00.538Z,1.50
2022-12-28T08:00:07.638Z,1.60
2022-12-28T08:05:12.961Z,1.60
2022-12-28T08:10:18.336Z,1.70
2022-12-28T08:15:23.697Z,1.70
2022-12-28T08:20:28.920Z,1.80
2022-12-28T08:25:35.887Z,1.90
2022-12-28T08:30:42.146Z,2.00
2022-12-28T08:35:47.565Z,2.00
2022-12-28T08:41:00.641Z,2.10
2022-12-28T08:46:08.699Z,2.10
2022-12-28T08:51:20.743Z,2.20
2022-12-28T08:56:32.516Z,2.30
2022-12-28T09:01:44.780Z,2.30
2022-12-28T09:06:51.662Z,2.40
2022-12-28T09:17:30.708Z,2.50
2022-12-28T09:22:36.083Z,2.60
2022-12-28T09:27:41.464Z,2.60
2022-12-28T09:32:51.400Z,2.70
2022-12-28T09:38:11.848Z,2.80
2022-12-28T09:43:43.385Z,2.90
2022-12-28T09:48:52.113Z,2.90
2022-12-28T09:53:58.006Z,2.90
2022-12-28T09:59:06.528Z,2.90
2022-12-28T10:04:14.992Z,3.00
2022-12-28T10:09:35.745Z,3.10
2022-12-28T10:14:45.024Z,3.20
2022-12-28T10:19:52.169Z,3.30
2022-12-28T10:25:00.492Z,3.40
2022-12-28T10:30:13.580Z,3.50
2022-12-28T10:35:47.604Z,3.60
2022-12-28T10:41:23.425Z,3.70
2022-12-28T10:46:33.138Z,3.80
2022-12-28T10:51:43.373Z,3.90
2022-12-28T10:56:57.889Z,3.90
2022-12-28T11:02:48.677Z,4.00
2022-12-28T11:08:24.563Z,4.10
2022-12-28T11:14:16.546Z,4.10
2022-12-28T11:19:29.199Z,4.20
2022-12-28T11:24:42.488Z,4.20
2022-12-28T11:30:04.029Z,4.20
2022-12-28T11:41:47.023Z,4.30
2022-12-28T11:47:09.893Z,4.30
2022-12-28T11:52:39.350Z,4.30
2022-12-28T12:14:59.156Z,4.50
2022-12-28T12:20:45.881Z,4.60
2022-12-28T12:25:55.117Z,4.70
2022-12-28T12:31:14.858Z,4.70
2022-12-28T12:36:47.555Z,4.70
2022-12-28T12:42:18.659Z,4.80
2022-12-28T12:47:30.100Z,4.80
2022-12-28T12:52:50.984Z,4.70
2022-12-28T12:58:05.001Z,4.60
2022-12-28T13:03:19.197Z,4.60
2022-12-28T13:08:33.447Z,4.50
2022-12-28T13:13:42.458Z,4.40
2022-12-28T13:18:58.747Z,4.40
2022-12-28T13:24:16.884Z,4.40
2022-12-28T13:29:24.846Z,4.50
2022-12-28T13:34:34.404Z,4.50
2022-12-28T13:39:42.138Z,4.50
2022-12-28T13:44:52.926Z,4.60
2022-12-28T13:50:16.113Z,4.60
2022-12-28T13:55:24.376Z,4.60
2022-12-28T14:00:31.614Z,4.70
2022-12-28T14:05:41.117Z,4.80
2022-12-28T14:10:55.995Z,4.70
2022-12-28T14:16:05.927Z,4.70
2022-12-28T14:21:12.234Z,4.70
2022-12-28T14:26:27.545Z,4.70
2022-12-28T14:31:47.531Z,4.70
2022-12-28T14:37:01.282Z,4.80
2022-12-28T14:42:30.126Z,4.80
2022-12-28T14:53:29.292Z,4.70
2022-12-28T15:04:46.016Z,4.80
2022-12-28T15:10:20.797Z,5.00
2022-12-28T15:16:17.739Z,5.00
2022-12-28T15:38:58.434Z,5.20
2022-12-28T15:44:44.850Z,5.20
2022-12-28T15:50:04.487Z,5.30
2022-12-28T15:55:24.977Z,5.30
2022-12-28T16:00:34.722Z,5.30
2022-12-28T16:11:27.520Z,5.40
2022-12-28T16:17:17.985Z,5.60
2022-12-28T16:40:15.683Z,5.60
2022-12-28T16:41:06.103Z,5.60
2022-12-28T16:45:27.097Z,5.50
2022-12-28T16:50:35.878Z,5.50
2022-12-28T16:55:43.457Z,5.40
2022-12-28T17:00:48.825Z,5.40
2022-12-28T17:05:58.986Z,5.40
2022-12-28T17:11:20.323Z,5.40
2022-12-28T17:16:25.941Z,5.40
2022-12-28T17:21:35.456Z,5.50
2022-12-28T17:32:50.250Z,5.60
2022-12-28T17:38:02.760Z,5.60
2022-12-28T17:43:08.127Z,5.60
2022-12-28T18:05:49.539Z,5.50
2022-12-28T18:10:54.910Z,5.50
2022-12-28T18:16:07.766Z,5.50
2022-12-28T18:21:21.675Z,5.50
2022-12-28T18:26:37.552Z,5.60
2022-12-28T18:31:45.106Z,5.70
2022-12-28T18:36:50.501Z,5.70
2022-12-28T18:42:08.670Z,5.70
2022-12-28T18:47:16.438Z,5.70
2022-12-28T18:52:29.119Z,5.70
2022-12-28T18:57:35.767Z,5.60
2022-12-28T19:02:42.047Z,5.60
2022-12-28T19:07:51.637Z,5.60
2022-12-28T19:13:16.133Z,5.60
2022-12-28T19:24:08.425Z,5.70
2022-12-28T19:29:18.230Z,5.70
2022-12-28T19:34:42.117Z,5.70
2022-12-28T19:39:57.668Z,5.80
2022-12-28T19:45:02.385Z,5.70
2022-12-28T19:55:37.093Z,5.70
2022-12-28T20:00:46.391Z,5.70
2022-12-28T20:05:54.223Z,5.80
2022-12-28T20:11:01.113Z,5.80
2022-12-28T20:22:22.946Z,5.90
2022-12-28T20:27:31.658Z,5.90
2022-12-28T20:32:44.542Z,6.00
2022-12-28T20:37:51.186Z,6.10
2022-12-28T20:43:14.072Z,6.20
2022-12-28T20:54:07.374Z,6.30
2022-12-28T20:59:18.193Z,6.30
2022-12-28T21:04:47.852Z,6.30
2022-12-28T21:15:40.497Z,6.30
2022-12-28T21:20:52.616Z,6.40
2022-12-28T21:26:17.502Z,6.40
2022-12-28T21:31:32.362Z,6.30
2022-12-28T21:36:45.790Z,6.40
2022-12-28T21:59:13.689Z,6.40
2022-12-28T22:04:43.271Z,6.30
2022-12-28T22:10:17.573Z,6.20
2022-12-28T22:15:47.789Z,6.10
2022-12-28T22:21:02.362Z,6.00
2022-12-28T22:26:16.571Z,6.00
2022-12-28T22:31:24.020Z,6.00
2022-12-28T22:42:20.992Z,6.10
2022-12-28T22:47:35.349Z,6.20
2022-12-28T22:52:57.027Z,6.30
2022-12-28T22:58:34.120Z,6.30
2022-12-28T23:03:45.103Z,6.30
2022-12-28T23:08:58.314Z,6.30
2022-12-28T23:14:30.713Z,6.30
2022-12-28T23:25:44.373Z,6.30
2022-12-28T23:30:54.174Z,6.30
2022-12-28T23:36:04.461Z,6.30
2022-12-28T23:41:28.395Z,6.30
2022-12-28T23:46:36.510Z,6.20
2022-12-28T23:51:44.335Z,6.20
2022-12-28T23:56:53.564Z,6.10
